Dades de l'estació automàtica Malgrat de Mar
Resum diari
17:30 TU| Temperatura mitjana | 18.4 °C | |
|---|---|---|
| Temperatura màxima | 23.2 °C | 10:28 TU |
| Temperatura mínima | 13.9 °C | 4:36 TU |
| Humitat relativa mitjana | 76% | |
| Precipitació acumulada | 0.0 mm | |
| Ratxa màxima del vent (10 m) | 16.9 km/h - 120º | 12:03 TU |
| Pressió atmosfèrica mitjana | 1023.0 hPa | |
| Irradiació solar global | 20.5 MJ/m2 | |
El tram horari està expressat en Temps Universal (TU). Cal sumar una hora en horari d'hivern i dues en horari d'estiu per passar a l'hora oficial.
Malgrat de Mar
| Municipi | Malgrat de Mar |
|---|---|
| Comarca | Maresme |
| Altitud | 3 m |
| Data alta | 04.05.2005 |
| Estat actual | Operativa |
| Període TU |
TM °C |
TX °C |
TN °C |
HRM % |
PPT mm |
VVM (10 m) km/h |
DVM (10 m) graus |
VVX (10 m) km/h |
PM hPa |
RS W/m2 |
|---|---|---|---|---|---|---|---|---|---|---|
| 00:00 - 00:30 | 16.3 | 16.5 | 16.2 | 86 | 0.0 | 7.2 | 345 | 10.8 | 1024.6 | 0 |
| 00:30 - 01:00 | 16.1 | 16.2 | 16.0 | 86 | 0.0 | 7.9 | 353 | 11.9 | 1024.3 | 0 |
| 01:00 - 01:30 | 16.1 | 16.1 | 16.0 | 84 | 0.0 | 7.2 | 353 | 10.8 | 1024.2 | 0 |
| 01:30 - 02:00 | 15.8 | 16.0 | 15.7 | 81 | 0.0 | 6.8 | 344 | 11.5 | 1024.1 | 0 |
| 02:00 - 02:30 | 15.9 | 16.1 | 15.8 | 76 | 0.0 | 6.1 | 339 | 11.2 | 1023.9 | 0 |
| 02:30 - 03:00 | 15.7 | 16.1 | 15.5 | 77 | 0.0 | 6.8 | 359 | 10.1 | 1023.8 | 0 |
| 03:00 - 03:30 | 15.1 | 15.4 | 14.6 | 78 | 0.0 | 6.8 | 352 | 9.7 | 1023.7 | 0 |
| 03:30 - 04:00 | 14.5 | 14.9 | 14.3 | 80 | 0.0 | 5.8 | 2 | 9.0 | 1023.6 | 0 |
| 04:00 - 04:30 | 14.2 | 14.4 | 14.1 | 84 | 0.0 | 6.1 | 359 | 9.7 | 1023.5 | 0 |
| 04:30 - 05:00 | 14.1 | 14.3 | 13.9 | 85 | 0.0 | 7.6 | 354 | 11.5 | 1023.5 | 3 |
| 05:00 - 05:30 | 14.5 | 15.1 | 14.2 | 85 | 0.0 | 6.8 | 2 | 10.8 | 1023.6 | 26 |
| 05:30 - 06:00 | 15.2 | 15.4 | 15.1 | 83 | 0.0 | 7.6 | 358 | 11.9 | 1023.7 | 57 |
| 06:00 - 06:30 | 16.0 | 16.5 | 15.4 | 80 | 0.0 | 6.5 | 350 | 10.8 | 1023.8 | 167 |
| 06:30 - 07:00 | 17.3 | 18.1 | 16.5 | 77 | 0.0 | 7.2 | 348 | 10.4 | 1023.8 | 361 |
| 07:00 - 07:30 | 18.7 | 19.8 | 18.1 | 73 | 0.0 | 5.0 | 21 | 10.1 | 1023.8 | 391 |
| 07:30 - 08:00 | 19.9 | 20.2 | 19.6 | 70 | 0.0 | 6.5 | 97 | 12.2 | 1023.9 | 293 |
| 08:00 - 08:30 | 20.7 | 21.5 | 20.3 | 70 | 0.0 | 7.9 | 100 | 13.0 | 1023.9 | 457 |
| 08:30 - 09:00 | 21.0 | 21.5 | 20.6 | 70 | 0.0 | 7.6 | 105 | 11.2 | 1024.0 | 570 |
| 09:00 - 09:30 | 21.4 | 22.5 | 20.9 | 70 | 0.0 | 8.6 | 106 | 13.7 | 1023.9 | 758 |
| 09:30 - 10:00 | 21.9 | 22.5 | 20.9 | 68 | 0.0 | 10.1 | 105 | 15.5 | 1023.9 | 773 |
| 10:00 - 10:30 | 22.5 | 23.2 | 22.0 | 66 | 0.0 | 10.8 | 104 | 16.2 | 1023.7 | 820 |
| 10:30 - 11:00 | 22.1 | 22.9 | 21.5 | 66 | 0.0 | 10.4 | 106 | 15.8 | 1023.6 | 687 |
| 11:00 - 11:30 | 21.6 | 21.9 | 21.2 | 67 | 0.0 | 10.4 | 110 | 16.2 | 1023.5 | 725 |
| 11:30 - 12:00 | 21.1 | 21.7 | 20.6 | 68 | 0.0 | 12.2 | 109 | 16.6 | 1023.0 | 504 |
| 12:00 - 12:30 | 20.4 | 20.8 | 20.2 | 71 | 0.0 | 12.6 | 115 | 16.9 | 1023.0 | 474 |
| 12:30 - 13:00 | 20.8 | 21.2 | 20.3 | 69 | 0.0 | 10.8 | 125 | 16.2 | 1022.9 | 756 |
| 13:00 - 13:30 | 20.5 | 21.2 | 19.8 | 70 | 0.0 | 9.7 | 146 | 13.7 | 1022.9 | 678 |
| 13:30 - 14:00 | 20.0 | 20.5 | 19.7 | 73 | 0.0 | 8.3 | 143 | 12.2 | 1022.5 | 566 |
| 14:00 - 14:30 | 19.9 | 20.7 | 19.2 | 72 | 0.0 | 7.9 | 151 | 11.5 | 1022.2 | 477 |
| 14:30 - 15:00 | 19.6 | 20.2 | 19.1 | 74 | 0.0 | 7.9 | 148 | 12.2 | 1021.7 | 494 |
| 15:00 - 15:30 | 20.0 | 20.1 | 19.7 | 72 | 0.0 | 9.0 | 157 | 12.6 | 1021.4 | 493 |
| 15:30 - 16:00 | 19.7 | 20.1 | 19.4 | 74 | 0.0 | 7.9 | 158 | 11.5 | 1021.2 | 397 |
| 16:00 - 16:30 | 19.2 | 19.5 | 18.7 | 78 | 0.0 | 7.2 | 149 | 10.8 | 1020.9 | 217 |
| 16:30 - 17:00 | 18.7 | 18.9 | 18.6 | 79 | 0.0 | 6.5 | 174 | 11.9 | 1020.8 | 104 |
| 17:00 - 17:30 | 18.5 | 18.7 | 18.2 | 80 | 0.0 | 6.8 | 165 | 10.1 | 1020.5 | 88 |
| 17:30 - 18:00 | 18.1 | 18.2 | 17.9 | 82 | 0.0 | 5.8 | 163 | 8.6 | 1019.9 | 42 |
Les dades en taronja només han passat un control de qualitat automàtic. Resta pendent la seva validació definitiva.